sensor_id;sensor_type;location;lat;lon;timestamp;P1;durP1;ratioP1;P2;durP2;ratioP2
8714;SDS011;4394;51.208;8.904;2023-03-01T00:01:38;10.97;;;7.10;;
8714;SDS011;4394;51.208;8.904;2023-03-01T00:04:26;10.53;;;6.50;;
8714;SDS011;4394;51.208;8.904;2023-03-01T00:07:14;11.43;;;7.10;;
8714;SDS011;4394;51.208;8.904;2023-03-01T00:10:02;12.87;;;7.60;;
8714;SDS011;4394;51.208;8.904;2023-03-01T00:12:50;12.80;;;7.17;;
8714;SDS011;4394;51.208;8.904;2023-03-01T00:15:40;9.77;;;6.50;;
8714;SDS011;4394;51.208;8.904;2023-03-01T00:18:28;11.00;;;6.67;;
8714;SDS011;4394;51.208;8.904;2023-03-01T00:21:16;11.07;;;6.87;;
8714;SDS011;4394;51.208;8.904;2023-03-01T00:24:04;11.00;;;6.90;;
8714;SDS011;4394;51.208;8.904;2023-03-01T00:26:53;10.73;;;6.70;;
8714;SDS011;4394;51.208;8.904;2023-03-01T00:29:42;11.73;;;7.27;;
8714;SDS011;4394;51.208;8.904;2023-03-01T00:32:31;11.13;;;6.97;;
8714;SDS011;4394;51.208;8.904;2023-03-01T00:35:19;10.90;;;7.07;;
8714;SDS011;4394;51.208;8.904;2023-03-01T00:38:09;9.60;;;6.80;;
8714;SDS011;4394;51.208;8.904;2023-03-01T00:41:02;10.70;;;7.13;;
8714;SDS011;4394;51.208;8.904;2023-03-01T00:43:51;11.93;;;6.70;;
8714;SDS011;4394;51.208;8.904;2023-03-01T00:46:39;11.40;;;7.10;;
8714;SDS011;4394;51.208;8.904;2023-03-01T00:49:29;9.67;;;6.20;;
8714;SDS011;4394;51.208;8.904;2023-03-01T00:52:17;9.60;;;6.70;;
8714;SDS011;4394;51.208;8.904;2023-03-01T00:55:05;12.07;;;7.37;;
8714;SDS011;4394;51.208;8.904;2023-03-01T00:57:54;10.03;;;7.37;;
8714;SDS011;4394;51.208;8.904;2023-03-01T01:00:41;10.13;;;6.93;;
8714;SDS011;4394;51.208;8.904;2023-03-01T01:03:29;11.40;;;7.00;;
8714;SDS011;4394;51.208;8.904;2023-03-01T01:06:19;12.10;;;7.10;;
8714;SDS011;4394;51.208;8.904;2023-03-01T01:09:09;9.07;;;6.53;;
8714;SDS011;4394;51.208;8.904;2023-03-01T01:12:03;9.00;;;6.80;;
8714;SDS011;4394;51.208;8.904;2023-03-01T01:14:51;11.43;;;7.00;;
8714;SDS011;4394;51.208;8.904;2023-03-01T01:17:39;11.70;;;6.80;;
8714;SDS011;4394;51.208;8.904;2023-03-01T01:20:27;10.10;;;7.10;;
8714;SDS011;4394;51.208;8.904;2023-03-01T01:23:17;10.73;;;6.63;;
8714;SDS011;4394;51.208;8.904;2023-03-01T01:26:05;13.03;;;6.67;;
8714;SDS011;4394;51.208;8.904;2023-03-01T01:28:54;10.17;;;6.93;;
8714;SDS011;4394;51.208;8.904;2023-03-01T01:31:42;9.83;;;6.47;;
8714;SDS011;4394;51.208;8.904;2023-03-01T01:34:30;11.33;;;7.13;;
8714;SDS011;4394;51.208;8.904;2023-03-01T01:37:21;10.23;;;6.83;;
8714;SDS011;4394;51.208;8.904;2023-03-01T01:40:17;10.53;;;6.30;;
8714;SDS011;4394;51.208;8.904;2023-03-01T01:43:20;8.90;;;6.10;;
8714;SDS011;4394;51.208;8.904;2023-03-01T01:46:13;11.57;;;6.57;;
8714;SDS011;4394;51.208;8.904;2023-03-01T01:49:16;10.53;;;7.30;;
8714;SDS011;4394;51.208;8.904;2023-03-01T01:52:11;9.63;;;6.20;;
8714;SDS011;4394;51.208;8.904;2023-03-01T01:55:05;8.20;;;6.97;;
8714;SDS011;4394;51.208;8.904;2023-03-01T01:57:58;13.00;;;6.97;;
8714;SDS011;4394;51.208;8.904;2023-03-01T02:00:50;11.83;;;6.67;;
8714;SDS011;4394;51.208;8.904;2023-03-01T02:03:38;10.27;;;6.73;;
8714;SDS011;4394;51.208;8.904;2023-03-01T02:06:31;11.63;;;6.77;;
8714;SDS011;4394;51.208;8.904;2023-03-01T02:09:23;10.37;;;6.87;;
8714;SDS011;4394;51.208;8.904;2023-03-01T02:12:11;9.60;;;6.27;;
8714;SDS011;4394;51.208;8.904;2023-03-01T02:15:02;13.97;;;7.60;;
8714;SDS011;4394;51.208;8.904;2023-03-01T02:17:51;11.83;;;7.43;;
8714;SDS011;4394;51.208;8.904;2023-03-01T02:20:40;9.57;;;6.73;;
8714;SDS011;4394;51.208;8.904;2023-03-01T02:23:38;8.73;;;6.40;;
8714;SDS011;4394;51.208;8.904;2023-03-01T02:26:29;11.40;;;6.43;;
8714;SDS011;4394;51.208;8.904;2023-03-01T02:29:24;11.73;;;7.07;;
8714;SDS011;4394;51.208;8.904;2023-03-01T02:32:13;11.37;;;7.07;;
8714;SDS011;4394;51.208;8.904;2023-03-01T02:35:02;11.10;;;7.20;;
8714;SDS011;4394;51.208;8.904;2023-03-01T02:37:52;10.60;;;6.80;;
8714;SDS011;4394;51.208;8.904;2023-03-01T02:40:43;12.23;;;6.93;;
8714;SDS011;4394;51.208;8.904;2023-03-01T02:43:32;12.10;;;7.23;;
8714;SDS011;4394;51.208;8.904;2023-03-01T02:46:22;12.23;;;7.40;;
8714;SDS011;4394;51.208;8.904;2023-03-01T02:49:19;10.33;;;7.00;;
8714;SDS011;4394;51.208;8.904;2023-03-01T02:52:31;11.90;;;6.90;;
8714;SDS011;4394;51.208;8.904;2023-03-01T02:55:27;10.63;;;7.00;;
8714;SDS011;4394;51.208;8.904;2023-03-01T02:58:15;11.30;;;6.77;;
8714;SDS011;4394;51.208;8.904;2023-03-01T03:01:03;11.53;;;6.50;;
8714;SDS011;4394;51.208;8.904;2023-03-01T03:03:52;8.73;;;6.70;;
8714;SDS011;4394;51.208;8.904;2023-03-01T03:06:40;10.03;;;7.27;;
8714;SDS011;4394;51.208;8.904;2023-03-01T03:09:28;10.90;;;6.43;;
8714;SDS011;4394;51.208;8.904;2023-03-01T03:12:16;12.23;;;6.40;;
8714;SDS011;4394;51.208;8.904;2023-03-01T03:15:04;13.07;;;6.90;;
8714;SDS011;4394;51.208;8.904;2023-03-01T03:17:55;8.80;;;6.20;;
8714;SDS011;4394;51.208;8.904;2023-03-01T03:20:45;13.50;;;6.93;;
8714;SDS011;4394;51.208;8.904;2023-03-01T03:23:33;11.03;;;6.50;;
8714;SDS011;4394;51.208;8.904;2023-03-01T03:26:22;11.37;;;7.00;;
8714;SDS011;4394;51.208;8.904;2023-03-01T03:29:10;10.23;;;7.03;;
8714;SDS011;4394;51.208;8.904;2023-03-01T03:31:58;11.57;;;7.37;;
8714;SDS011;4394;51.208;8.904;2023-03-01T03:34:46;10.57;;;7.00;;
8714;SDS011;4394;51.208;8.904;2023-03-01T03:37:36;10.03;;;6.73;;
8714;SDS011;4394;51.208;8.904;2023-03-01T03:40:43;11.07;;;6.87;;
8714;SDS011;4394;51.208;8.904;2023-03-01T03:43:33;10.97;;;6.67;;
8714;SDS011;4394;51.208;8.904;2023-03-01T03:46:23;9.13;;;7.13;;
8714;SDS011;4394;51.208;8.904;2023-03-01T03:49:11;11.93;;;6.70;;
8714;SDS011;4394;51.208;8.904;2023-03-01T03:51:59;9.60;;;6.80;;
8714;SDS011;4394;51.208;8.904;2023-03-01T03:54:48;9.20;;;6.47;;
8714;SDS011;4394;51.208;8.904;2023-03-01T03:57:36;12.03;;;7.07;;
8714;SDS011;4394;51.208;8.904;2023-03-01T04:00:24;11.27;;;6.53;;
8714;SDS011;4394;51.208;8.904;2023-03-01T04:03:12;10.97;;;7.40;;
8714;SDS011;4394;51.208;8.904;2023-03-01T04:06:02;9.97;;;6.43;;
8714;SDS011;4394;51.208;8.904;2023-03-01T04:08:52;13.03;;;7.80;;
8714;SDS011;4394;51.208;8.904;2023-03-01T04:11:46;11.13;;;6.93;;
8714;SDS011;4394;51.208;8.904;2023-03-01T04:14:34;12.50;;;6.97;;
8714;SDS011;4394;51.208;8.904;2023-03-01T04:17:22;13.47;;;7.43;;
8714;SDS011;4394;51.208;8.904;2023-03-01T04:20:10;10.87;;;7.07;;
8714;SDS011;4394;51.208;8.904;2023-03-01T04:23:01;12.00;;;7.40;;
8714;SDS011;4394;51.208;8.904;2023-03-01T04:25:57;13.00;;;7.00;;
8714;SDS011;4394;51.208;8.904;2023-03-01T04:28:47;12.60;;;7.20;;
8714;SDS011;4394;51.208;8.904;2023-03-01T04:31:36;13.17;;;6.80;;
8714;SDS011;4394;51.208;8.904;2023-03-01T04:34:24;11.30;;;7.17;;
8714;SDS011;4394;51.208;8.904;2023-03-01T04:37:12;13.60;;;6.97;;
8714;SDS011;4394;51.208;8.904;2023-03-01T04:40:02;12.13;;;7.47;;
8714;SDS011;4394;51.208;8.904;2023-03-01T04:42:58;11.20;;;6.97;;
8714;SDS011;4394;51.208;8.904;2023-03-01T04:45:48;10.90;;;6.57;;
8714;SDS011;4394;51.208;8.904;2023-03-01T04:48:37;11.03;;;7.53;;
8714;SDS011;4394;51.208;8.904;2023-03-01T04:51:26;9.07;;;6.47;;
8714;SDS011;4394;51.208;8.904;2023-03-01T04:54:14;10.17;;;7.10;;
8714;SDS011;4394;51.208;8.904;2023-03-01T04:57:02;14.03;;;6.93;;
8714;SDS011;4394;51.208;8.904;2023-03-01T04:59:50;10.30;;;6.63;;
8714;SDS011;4394;51.208;8.904;2023-03-01T05:02:39;17.03;;;7.77;;
8714;SDS011;4394;51.208;8.904;2023-03-01T05:05:28;9.17;;;6.57;;
8714;SDS011;4394;51.208;8.904;2023-03-01T05:08:19;10.80;;;6.97;;
8714;SDS011;4394;51.208;8.904;2023-03-01T05:11:07;10.87;;;6.57;;
8714;SDS011;4394;51.208;8.904;2023-03-01T05:13:55;11.53;;;6.87;;
8714;SDS011;4394;51.208;8.904;2023-03-01T05:16:43;11.30;;;6.90;;
8714;SDS011;4394;51.208;8.904;2023-03-01T05:19:32;10.93;;;6.90;;
8714;SDS011;4394;51.208;8.904;2023-03-01T05:22:20;14.17;;;7.10;;
8714;SDS011;4394;51.208;8.904;2023-03-01T05:25:09;10.80;;;6.83;;
8714;SDS011;4394;51.208;8.904;2023-03-01T05:27:57;13.07;;;7.07;;
8714;SDS011;4394;51.208;8.904;2023-03-01T05:30:45;10.57;;;6.40;;
8714;SDS011;4394;51.208;8.904;2023-03-01T05:33:33;12.43;;;7.30;;
8714;SDS011;4394;51.208;8.904;2023-03-01T05:36:25;10.27;;;6.83;;
8714;SDS011;4394;51.208;8.904;2023-03-01T05:39:13;10.83;;;6.80;;
8714;SDS011;4394;51.208;8.904;2023-03-01T05:42:01;9.43;;;6.40;;
8714;SDS011;4394;51.208;8.904;2023-03-01T05:44:49;11.90;;;6.60;;
8714;SDS011;4394;51.208;8.904;2023-03-01T05:47:37;10.30;;;6.87;;
8714;SDS011;4394;51.208;8.904;2023-03-01T05:50:26;12.53;;;7.27;;
8714;SDS011;4394;51.208;8.904;2023-03-01T05:53:17;12.70;;;7.43;;
8714;SDS011;4394;51.208;8.904;2023-03-01T05:56:07;12.77;;;7.30;;
8714;SDS011;4394;51.208;8.904;2023-03-01T05:58:56;11.33;;;7.60;;
8714;SDS011;4394;51.208;8.904;2023-03-01T06:01:44;12.83;;;7.83;;
8714;SDS011;4394;51.208;8.904;2023-03-01T06:04:32;12.00;;;7.27;;
8714;SDS011;4394;51.208;8.904;2023-03-01T06:07:20;13.33;;;7.30;;
8714;SDS011;4394;51.208;8.904;2023-03-01T06:10:10;11.27;;;6.83;;
8714;SDS011;4394;51.208;8.904;2023-03-01T06:12:59;11.57;;;6.63;;
8714;SDS011;4394;51.208;8.904;2023-03-01T06:15:46;10.87;;;6.63;;
8714;SDS011;4394;51.208;8.904;2023-03-01T06:18:34;11.73;;;7.47;;
8714;SDS011;4394;51.208;8.904;2023-03-01T06:21:22;14.10;;;7.20;;
8714;SDS011;4394;51.208;8.904;2023-03-01T06:24:10;12.70;;;6.87;;
8714;SDS011;4394;51.208;8.904;2023-03-01T06:26:59;13.00;;;7.27;;
8714;SDS011;4394;51.208;8.904;2023-03-01T06:29:47;12.20;;;7.67;;
8714;SDS011;4394;51.208;8.904;2023-03-01T06:32:35;11.73;;;7.33;;
8714;SDS011;4394;51.208;8.904;2023-03-01T06:35:23;9.30;;;6.23;;
8714;SDS011;4394;51.208;8.904;2023-03-01T06:38:16;11.23;;;7.10;;
8714;SDS011;4394;51.208;8.904;2023-03-01T06:41:05;10.57;;;6.37;;
8714;SDS011;4394;51.208;8.904;2023-03-01T06:43:54;11.00;;;6.73;;
8714;SDS011;4394;51.208;8.904;2023-03-01T06:46:42;9.70;;;6.60;;
8714;SDS011;4394;51.208;8.904;2023-03-01T06:49:30;12.67;;;7.17;;
8714;SDS011;4394;51.208;8.904;2023-03-01T06:52:18;11.87;;;6.80;;
8714;SDS011;4394;51.208;8.904;2023-03-01T06:55:06;11.10;;;6.80;;
8714;SDS011;4394;51.208;8.904;2023-03-01T06:57:55;10.80;;;7.33;;
8714;SDS011;4394;51.208;8.904;2023-03-01T07:00:44;9.93;;;6.83;;
8714;SDS011;4394;51.208;8.904;2023-03-01T07:03:32;10.10;;;6.73;;
8714;SDS011;4394;51.208;8.904;2023-03-01T07:06:20;11.67;;;6.90;;
8714;SDS011;4394;51.208;8.904;2023-03-01T07:09:08;11.27;;;7.03;;
8714;SDS011;4394;51.208;8.904;2023-03-01T07:11:56;13.73;;;6.30;;
8714;SDS011;4394;51.208;8.904;2023-03-01T07:14:45;12.37;;;6.70;;
8714;SDS011;4394;51.208;8.904;2023-03-01T07:17:34;10.73;;;6.37;;
8714;SDS011;4394;51.208;8.904;2023-03-01T07:20:22;10.83;;;6.60;;
8714;SDS011;4394;51.208;8.904;2023-03-01T07:23:11;9.57;;;6.47;;
8714;SDS011;4394;51.208;8.904;2023-03-01T07:25:59;9.90;;;6.20;;
8714;SDS011;4394;51.208;8.904;2023-03-01T07:28:47;8.20;;;5.77;;
8714;SDS011;4394;51.208;8.904;2023-03-01T07:31:35;10.00;;;6.30;;
8714;SDS011;4394;51.208;8.904;2023-03-01T07:34:24;10.07;;;6.60;;
8714;SDS011;4394;51.208;8.904;2023-03-01T07:37:12;10.70;;;6.67;;
8714;SDS011;4394;51.208;8.904;2023-03-01T07:40:00;9.67;;;6.13;;
8714;SDS011;4394;51.208;8.904;2023-03-01T07:42:48;8.80;;;6.13;;
8714;SDS011;4394;51.208;8.904;2023-03-01T07:45:36;7.97;;;5.77;;
8714;SDS011;4394;51.208;8.904;2023-03-01T07:48:24;8.77;;;5.70;;
8714;SDS011;4394;51.208;8.904;2023-03-01T07:51:13;9.20;;;6.07;;
8714;SDS011;4394;51.208;8.904;2023-03-01T07:54:02;8.97;;;5.60;;
8714;SDS011;4394;51.208;8.904;2023-03-01T07:56:50;10.93;;;6.40;;
8714;SDS011;4394;51.208;8.904;2023-03-01T07:59:38;8.43;;;5.97;;
8714;SDS011;4394;51.208;8.904;2023-03-01T08:02:25;11.03;;;6.20;;
8714;SDS011;4394;51.208;8.904;2023-03-01T08:05:13;10.67;;;6.67;;
8714;SDS011;4394;51.208;8.904;2023-03-01T08:08:03;10.57;;;6.50;;
8714;SDS011;4394;51.208;8.904;2023-03-01T08:10:51;10.43;;;6.67;;
8714;SDS011;4394;51.208;8.904;2023-03-01T08:13:39;11.30;;;6.70;;
8714;SDS011;4394;51.208;8.904;2023-03-01T08:16:28;11.43;;;6.73;;
8714;SDS011;4394;51.208;8.904;2023-03-01T08:19:16;9.30;;;5.87;;
8714;SDS011;4394;51.208;8.904;2023-03-01T08:22:05;10.37;;;6.23;;
8714;SDS011;4394;51.208;8.904;2023-03-01T08:24:54;9.20;;;6.30;;
8714;SDS011;4394;51.208;8.904;2023-03-01T08:27:42;9.73;;;6.10;;
8714;SDS011;4394;51.208;8.904;2023-03-01T08:30:30;8.67;;;6.00;;
8714;SDS011;4394;51.208;8.904;2023-03-01T08:33:19;10.97;;;6.20;;
8714;SDS011;4394;51.208;8.904;2023-03-01T08:36:07;9.17;;;6.30;;
8714;SDS011;4394;51.208;8.904;2023-03-01T08:38:55;10.97;;;6.07;;
8714;SDS011;4394;51.208;8.904;2023-03-01T08:41:44;10.43;;;6.80;;
8714;SDS011;4394;51.208;8.904;2023-03-01T08:44:33;9.40;;;6.27;;
8714;SDS011;4394;51.208;8.904;2023-03-01T08:47:21;9.70;;;6.63;;
8714;SDS011;4394;51.208;8.904;2023-03-01T08:50:09;9.27;;;6.47;;
8714;SDS011;4394;51.208;8.904;2023-03-01T08:52:57;10.50;;;6.80;;
8714;SDS011;4394;51.208;8.904;2023-03-01T08:55:45;10.23;;;6.40;;
8714;SDS011;4394;51.208;8.904;2023-03-01T08:58:37;8.47;;;6.03;;
8714;SDS011;4394;51.208;8.904;2023-03-01T09:01:26;9.43;;;5.83;;
8714;SDS011;4394;51.208;8.904;2023-03-01T09:04:14;11.73;;;6.90;;
8714;SDS011;4394;51.208;8.904;2023-03-01T09:07:02;12.43;;;6.80;;
8714;SDS011;4394;51.208;8.904;2023-03-01T09:09:50;8.47;;;6.13;;
8714;SDS011;4394;51.208;8.904;2023-03-01T09:12:39;8.87;;;6.23;;
8714;SDS011;4394;51.208;8.904;2023-03-01T09:15:28;9.33;;;6.57;;
8714;SDS011;4394;51.208;8.904;2023-03-01T09:18:19;11.53;;;6.67;;
8714;SDS011;4394;51.208;8.904;2023-03-01T09:21:07;9.90;;;6.27;;
8714;SDS011;4394;51.208;8.904;2023-03-01T09:23:56;8.63;;;5.93;;
8714;SDS011;4394;51.208;8.904;2023-03-01T09:26:44;9.13;;;6.00;;
8714;SDS011;4394;51.208;8.904;2023-03-01T09:29:35;9.17;;;5.87;;
8714;SDS011;4394;51.208;8.904;2023-03-01T09:32:24;11.10;;;6.00;;
8714;SDS011;4394;51.208;8.904;2023-03-01T09:35:12;11.83;;;6.40;;
8714;SDS011;4394;51.208;8.904;2023-03-01T09:38:01;10.87;;;6.17;;
8714;SDS011;4394;51.208;8.904;2023-03-01T09:40:48;8.73;;;5.80;;
8714;SDS011;4394;51.208;8.904;2023-03-01T09:43:39;8.77;;;6.20;;
8714;SDS011;4394;51.208;8.904;2023-03-01T09:46:32;9.37;;;6.10;;
8714;SDS011;4394;51.208;8.904;2023-03-01T09:49:28;9.60;;;6.37;;
8714;SDS011;4394;51.208;8.904;2023-03-01T09:52:21;10.77;;;5.87;;
8714;SDS011;4394;51.208;8.904;2023-03-01T09:55:16;9.60;;;5.60;;
8714;SDS011;4394;51.208;8.904;2023-03-01T09:58:19;10.43;;;6.10;;
8714;SDS011;4394;51.208;8.904;2023-03-01T10:01:29;8.87;;;5.50;;
8714;SDS011;4394;51.208;8.904;2023-03-01T10:04:23;8.90;;;5.70;;
8714;SDS011;4394;51.208;8.904;2023-03-01T10:07:27;10.57;;;5.77;;
8714;SDS011;4394;51.208;8.904;2023-03-01T10:10:23;10.23;;;5.93;;
8714;SDS011;4394;51.208;8.904;2023-03-01T10:13:19;8.43;;;5.87;;
8714;SDS011;4394;51.208;8.904;2023-03-01T10:16:11;10.00;;;6.10;;
8714;SDS011;4394;51.208;8.904;2023-03-01T10:19:03;8.90;;;6.10;;
8714;SDS011;4394;51.208;8.904;2023-03-01T10:21:53;9.47;;;5.77;;
8714;SDS011;4394;51.208;8.904;2023-03-01T10:24:44;10.40;;;5.63;;
8714;SDS011;4394;51.208;8.904;2023-03-01T10:27:34;8.37;;;5.67;;
8714;SDS011;4394;51.208;8.904;2023-03-01T10:30:30;11.17;;;6.13;;
8714;SDS011;4394;51.208;8.904;2023-03-01T10:33:23;9.13;;;5.80;;
8714;SDS011;4394;51.208;8.904;2023-03-01T10:36:13;9.73;;;5.87;;
8714;SDS011;4394;51.208;8.904;2023-03-01T10:39:03;7.73;;;5.60;;
8714;SDS011;4394;51.208;8.904;2023-03-01T10:42:00;8.57;;;6.00;;
8714;SDS011;4394;51.208;8.904;2023-03-01T10:44:49;8.50;;;5.23;;
8714;SDS011;4394;51.208;8.904;2023-03-01T10:47:37;10.83;;;6.17;;
8714;SDS011;4394;51.208;8.904;2023-03-01T10:50:25;8.83;;;6.10;;
8714;SDS011;4394;51.208;8.904;2023-03-01T10:53:19;6.90;;;5.70;;
8714;SDS011;4394;51.208;8.904;2023-03-01T10:56:14;9.57;;;6.30;;
8714;SDS011;4394;51.208;8.904;2023-03-01T10:59:03;9.10;;;6.90;;
8714;SDS011;4394;51.208;8.904;2023-03-01T11:02:02;11.20;;;6.47;;
8714;SDS011;4394;51.208;8.904;2023-03-01T11:05:16;8.53;;;5.63;;
8714;SDS011;4394;51.208;8.904;2023-03-01T11:08:08;8.67;;;5.60;;
8714;SDS011;4394;51.208;8.904;2023-03-01T11:11:05;11.43;;;5.80;;
8714;SDS011;4394;51.208;8.904;2023-03-01T11:14:07;10.20;;;6.20;;
8714;SDS011;4394;51.208;8.904;2023-03-01T11:17:13;8.30;;;6.40;;
8714;SDS011;4394;51.208;8.904;2023-03-01T11:20:06;9.83;;;6.60;;
8714;SDS011;4394;51.208;8.904;2023-03-01T11:23:05;8.43;;;5.80;;
8714;SDS011;4394;51.208;8.904;2023-03-01T11:25:58;11.50;;;6.70;;
8714;SDS011;4394;51.208;8.904;2023-03-01T11:28:53;9.13;;;6.30;;
8714;SDS011;4394;51.208;8.904;2023-03-01T11:31:45;10.23;;;6.50;;
8714;SDS011;4394;51.208;8.904;2023-03-01T11:34:43;9.47;;;5.90;;
8714;SDS011;4394;51.208;8.904;2023-03-01T11:37:38;9.23;;;6.03;;
8714;SDS011;4394;51.208;8.904;2023-03-01T11:40:33;10.37;;;6.70;;
8714;SDS011;4394;51.208;8.904;2023-03-01T11:43:26;9.07;;;5.57;;
8714;SDS011;4394;51.208;8.904;2023-03-01T11:46:32;8.90;;;6.70;;
8714;SDS011;4394;51.208;8.904;2023-03-01T11:52:53;9.30;;;6.17;;
8714;SDS011;4394;51.208;8.904;2023-03-01T11:56:09;9.03;;;6.27;;
8714;SDS011;4394;51.208;8.904;2023-03-01T11:59:08;9.43;;;6.17;;
8714;SDS011;4394;51.208;8.904;2023-03-01T12:02:19;8.60;;;6.10;;
8714;SDS011;4394;51.208;8.904;2023-03-01T12:05:48;8.63;;;5.83;;
8714;SDS011;4394;51.208;8.904;2023-03-01T12:08:51;9.00;;;5.90;;
8714;SDS011;4394;51.208;8.904;2023-03-01T12:11:52;10.80;;;6.20;;
8714;SDS011;4394;51.208;8.904;2023-03-01T12:15:11;8.03;;;6.23;;
8714;SDS011;4394;51.208;8.904;2023-03-01T12:21:37;8.63;;;6.17;;
8714;SDS011;4394;51.208;8.904;2023-03-01T12:24:40;8.27;;;5.90;;
8714;SDS011;4394;51.208;8.904;2023-03-01T12:31:00;9.83;;;6.53;;
8714;SDS011;4394;51.208;8.904;2023-03-01T12:34:07;10.23;;;6.43;;
8714;SDS011;4394;51.208;8.904;2023-03-01T12:37:14;8.97;;;6.10;;
8714;SDS011;4394;51.208;8.904;2023-03-01T12:40:15;9.70;;;6.40;;
8714;SDS011;4394;51.208;8.904;2023-03-01T12:43:26;9.63;;;6.10;;
8714;SDS011;4394;51.208;8.904;2023-03-01T12:46:25;8.43;;;5.80;;
8714;SDS011;4394;51.208;8.904;2023-03-01T12:49:23;9.47;;;6.27;;
8714;SDS011;4394;51.208;8.904;2023-03-01T12:52:16;8.07;;;6.00;;
8714;SDS011;4394;51.208;8.904;2023-03-01T12:55:16;9.37;;;6.17;;
8714;SDS011;4394;51.208;8.904;2023-03-01T12:58:13;8.73;;;5.83;;
8714;SDS011;4394;51.208;8.904;2023-03-01T13:01:21;8.67;;;6.20;;
8714;SDS011;4394;51.208;8.904;2023-03-01T13:04:43;7.53;;;5.90;;
8714;SDS011;4394;51.208;8.904;2023-03-01T13:07:41;8.33;;;5.80;;
8714;SDS011;4394;51.208;8.904;2023-03-01T13:10:40;8.03;;;5.83;;
8714;SDS011;4394;51.208;8.904;2023-03-01T13:13:35;8.00;;;5.77;;
8714;SDS011;4394;51.208;8.904;2023-03-01T13:16:39;10.80;;;5.93;;
8714;SDS011;4394;51.208;8.904;2023-03-01T13:19:31;8.13;;;5.70;;
8714;SDS011;4394;51.208;8.904;2023-03-01T13:22:30;8.33;;;5.70;;
8714;SDS011;4394;51.208;8.904;2023-03-01T13:25:29;8.03;;;5.23;;
8714;SDS011;4394;51.208;8.904;2023-03-01T13:28:38;6.37;;;5.30;;
8714;SDS011;4394;51.208;8.904;2023-03-01T13:34:51;8.47;;;6.47;;
8714;SDS011;4394;51.208;8.904;2023-03-01T13:37:45;11.03;;;6.43;;
8714;SDS011;4394;51.208;8.904;2023-03-01T13:43:45;7.97;;;6.03;;
8714;SDS011;4394;51.208;8.904;2023-03-01T13:46:34;9.63;;;5.93;;
8714;SDS011;4394;51.208;8.904;2023-03-01T13:49:25;10.57;;;6.87;;
8714;SDS011;4394;51.208;8.904;2023-03-01T13:52:38;10.70;;;6.33;;
8714;SDS011;4394;51.208;8.904;2023-03-01T13:55:32;9.57;;;6.10;;
8714;SDS011;4394;51.208;8.904;2023-03-01T13:58:25;10.20;;;6.13;;
8714;SDS011;4394;51.208;8.904;2023-03-01T14:01:20;13.20;;;5.83;;
8714;SDS011;4394;51.208;8.904;2023-03-01T14:04:18;8.07;;;6.00;;
8714;SDS011;4394;51.208;8.904;2023-03-01T14:07:12;8.73;;;6.00;;
8714;SDS011;4394;51.208;8.904;2023-03-01T14:10:01;8.17;;;5.70;;
8714;SDS011;4394;51.208;8.904;2023-03-01T14:12:53;9.40;;;5.73;;
8714;SDS011;4394;51.208;8.904;2023-03-01T14:16:05;9.63;;;5.77;;
8714;SDS011;4394;51.208;8.904;2023-03-01T14:19:08;7.50;;;6.00;;
8714;SDS011;4394;51.208;8.904;2023-03-01T14:22:19;7.53;;;5.57;;
8714;SDS011;4394;51.208;8.904;2023-03-01T14:25:16;7.50;;;5.53;;
8714;SDS011;4394;51.208;8.904;2023-03-01T14:28:14;8.57;;;5.70;;
8714;SDS011;4394;51.208;8.904;2023-03-01T14:34:29;8.17;;;5.60;;
8714;SDS011;4394;51.208;8.904;2023-03-01T14:37:21;7.33;;;5.63;;
8714;SDS011;4394;51.208;8.904;2023-03-01T14:40:19;7.50;;;5.63;;
8714;SDS011;4394;51.208;8.904;2023-03-01T14:43:09;7.70;;;5.30;;
8714;SDS011;4394;51.208;8.904;2023-03-01T14:46:00;8.97;;;5.40;;
8714;SDS011;4394;51.208;8.904;2023-03-01T14:48:49;8.80;;;6.10;;
8714;SDS011;4394;51.208;8.904;2023-03-01T14:51:38;7.10;;;4.73;;
8714;SDS011;4394;51.208;8.904;2023-03-01T14:54:30;8.10;;;5.27;;
8714;SDS011;4394;51.208;8.904;2023-03-01T14:57:25;6.03;;;4.80;;
8714;SDS011;4394;51.208;8.904;2023-03-01T15:00:16;5.50;;;4.60;;
8714;SDS011;4394;51.208;8.904;2023-03-01T15:03:11;8.33;;;4.97;;
8714;SDS011;4394;51.208;8.904;2023-03-01T15:06:04;7.27;;;4.60;;
8714;SDS011;4394;51.208;8.904;2023-03-01T15:08:54;7.10;;;5.00;;
8714;SDS011;4394;51.208;8.904;2023-03-01T15:11:43;6.60;;;5.00;;
8714;SDS011;4394;51.208;8.904;2023-03-01T15:14:41;10.00;;;5.40;;
8714;SDS011;4394;51.208;8.904;2023-03-01T15:17:43;7.17;;;4.50;;
8714;SDS011;4394;51.208;8.904;2023-03-01T15:20:32;6.90;;;4.63;;
8714;SDS011;4394;51.208;8.904;2023-03-01T15:23:23;5.80;;;4.30;;
8714;SDS011;4394;51.208;8.904;2023-03-01T15:26:23;6.83;;;4.83;;
8714;SDS011;4394;51.208;8.904;2023-03-01T15:29:15;6.60;;;4.60;;
8714;SDS011;4394;51.208;8.904;2023-03-01T15:32:05;6.43;;;4.07;;
8714;SDS011;4394;51.208;8.904;2023-03-01T15:38:27;6.87;;;4.63;;
8714;SDS011;4394;51.208;8.904;2023-03-01T15:41:24;7.17;;;4.37;;
8714;SDS011;4394;51.208;8.904;2023-03-01T15:44:16;6.47;;;4.80;;
8714;SDS011;4394;51.208;8.904;2023-03-01T15:47:27;9.70;;;5.63;;
8714;SDS011;4394;51.208;8.904;2023-03-01T15:50:17;7.43;;;5.13;;
8714;SDS011;4394;51.208;8.904;2023-03-01T15:53:11;8.33;;;5.57;;
8714;SDS011;4394;51.208;8.904;2023-03-01T15:56:01;8.93;;;5.50;;
8714;SDS011;4394;51.208;8.904;2023-03-01T15:58:49;7.40;;;4.90;;
8714;SDS011;4394;51.208;8.904;2023-03-01T16:01:37;6.73;;;4.67;;
8714;SDS011;4394;51.208;8.904;2023-03-01T16:04:25;6.83;;;5.03;;
8714;SDS011;4394;51.208;8.904;2023-03-01T16:07:14;6.20;;;4.83;;
8714;SDS011;4394;51.208;8.904;2023-03-01T16:10:03;7.43;;;5.90;;
8714;SDS011;4394;51.208;8.904;2023-03-01T16:12:52;9.30;;;5.63;;
8714;SDS011;4394;51.208;8.904;2023-03-01T16:15:40;7.73;;;5.63;;
8714;SDS011;4394;51.208;8.904;2023-03-01T16:18:29;8.40;;;5.43;;
8714;SDS011;4394;51.208;8.904;2023-03-01T16:21:19;9.10;;;6.57;;
8714;SDS011;4394;51.208;8.904;2023-03-01T16:24:09;8.37;;;5.93;;
8714;SDS011;4394;51.208;8.904;2023-03-01T16:26:58;7.80;;;5.60;;
8714;SDS011;4394;51.208;8.904;2023-03-01T16:29:46;9.17;;;5.77;;
8714;SDS011;4394;51.208;8.904;2023-03-01T16:32:37;9.77;;;6.23;;
8714;SDS011;4394;51.208;8.904;2023-03-01T16:35:26;10.93;;;7.60;;
8714;SDS011;4394;51.208;8.904;2023-03-01T16:38:15;9.30;;;6.40;;
8714;SDS011;4394;51.208;8.904;2023-03-01T16:41:03;9.83;;;7.30;;
8714;SDS011;4394;51.208;8.904;2023-03-01T16:43:52;9.67;;;6.73;;
8714;SDS011;4394;51.208;8.904;2023-03-01T16:46:40;10.50;;;7.30;;
8714;SDS011;4394;51.208;8.904;2023-03-01T16:49:29;10.93;;;7.33;;
8714;SDS011;4394;51.208;8.904;2023-03-01T16:52:17;11.20;;;7.07;;
8714;SDS011;4394;51.208;8.904;2023-03-01T16:55:05;11.23;;;6.93;;
8714;SDS011;4394;51.208;8.904;2023-03-01T16:57:56;9.80;;;6.80;;
8714;SDS011;4394;51.208;8.904;2023-03-01T17:00:45;8.17;;;6.27;;
8714;SDS011;4394;51.208;8.904;2023-03-01T17:03:33;8.97;;;6.20;;
8714;SDS011;4394;51.208;8.904;2023-03-01T17:06:21;8.43;;;6.40;;
8714;SDS011;4394;51.208;8.904;2023-03-01T17:09:11;9.27;;;6.20;;
8714;SDS011;4394;51.208;8.904;2023-03-01T17:11:58;9.20;;;6.10;;
8714;SDS011;4394;51.208;8.904;2023-03-01T17:14:46;9.17;;;6.67;;
8714;SDS011;4394;51.208;8.904;2023-03-01T17:17:37;9.67;;;6.57;;
8714;SDS011;4394;51.208;8.904;2023-03-01T17:20:25;9.07;;;5.90;;
8714;SDS011;4394;51.208;8.904;2023-03-01T17:23:13;10.67;;;7.03;;
8714;SDS011;4394;51.208;8.904;2023-03-01T17:26:01;8.93;;;6.40;;
8714;SDS011;4394;51.208;8.904;2023-03-01T17:28:49;9.20;;;6.77;;
8714;SDS011;4394;51.208;8.904;2023-03-01T17:31:38;9.97;;;6.57;;
8714;SDS011;4394;51.208;8.904;2023-03-01T17:34:27;12.27;;;6.97;;
8714;SDS011;4394;51.208;8.904;2023-03-01T17:37:17;10.77;;;6.60;;
8714;SDS011;4394;51.208;8.904;2023-03-01T17:40:06;8.97;;;6.50;;
8714;SDS011;4394;51.208;8.904;2023-03-01T17:42:55;9.50;;;6.63;;
8714;SDS011;4394;51.208;8.904;2023-03-01T17:45:43;11.93;;;7.13;;
8714;SDS011;4394;51.208;8.904;2023-03-01T17:48:33;9.17;;;6.50;;
8714;SDS011;4394;51.208;8.904;2023-03-01T17:51:23;10.53;;;6.90;;
8714;SDS011;4394;51.208;8.904;2023-03-01T17:54:11;9.73;;;6.40;;
8714;SDS011;4394;51.208;8.904;2023-03-01T17:56:58;8.83;;;6.20;;
8714;SDS011;4394;51.208;8.904;2023-03-01T17:59:46;9.03;;;5.80;;
8714;SDS011;4394;51.208;8.904;2023-03-01T18:02:34;8.13;;;5.80;;